createdAt,value
2023-02-26T00:00:22.222Z,0.70
2023-02-26T00:03:10.396Z,0.80
2023-02-26T00:06:02.120Z,0.60
2023-02-26T00:08:52.116Z,0.60
2023-02-26T00:11:40.671Z,0.70
2023-02-26T00:14:30.187Z,0.70
2023-02-26T00:17:32.537Z,0.60
2023-02-26T00:20:21.252Z,0.70
2023-02-26T00:23:14.287Z,0.60
2023-02-26T00:26:03.857Z,0.70
2023-02-26T00:28:52.817Z,0.70
2023-02-26T00:31:41.906Z,0.60
2023-02-26T00:34:30.899Z,0.60
2023-02-26T00:37:33.059Z,0.60
2023-02-26T00:40:26.030Z,0.60
2023-02-26T00:43:19.121Z,0.60
2023-02-26T00:46:17.702Z,0.60
2023-02-26T00:49:16.939Z,0.60
2023-02-26T00:52:11.729Z,0.60
2023-02-26T00:54:59.989Z,0.60
2023-02-26T00:57:48.314Z,0.60
2023-02-26T01:00:40.597Z,0.50
2023-02-26T01:03:29.329Z,0.60
2023-02-26T01:06:21.496Z,0.70
2023-02-26T01:09:17.149Z,0.50
2023-02-26T01:12:08.404Z,0.60
2023-02-26T01:14:57.201Z,0.77
2023-02-26T01:17:51.418Z,0.60
2023-02-26T01:20:45.332Z,0.60
2023-02-26T01:23:37.537Z,0.70
2023-02-26T01:26:29.229Z,0.60
2023-02-26T01:29:18.037Z,0.60
2023-02-26T01:32:11.544Z,0.53
2023-02-26T01:35:10.889Z,0.60
2023-02-26T01:38:04.138Z,0.60
2023-02-26T01:41:24.924Z,0.60
2023-02-26T01:44:21.044Z,0.53
2023-02-26T01:47:17.995Z,0.70
2023-02-26T01:50:15.136Z,0.60
2023-02-26T01:53:22.847Z,0.70
2023-02-26T01:56:17.338Z,0.57
2023-02-26T01:59:06.180Z,0.60
2023-02-26T02:01:57.394Z,0.60
2023-02-26T02:04:46.874Z,0.60
2023-02-26T02:07:36.629Z,0.60
2023-02-26T02:10:25.349Z,0.50
2023-02-26T02:13:25.442Z,0.60
2023-02-26T02:16:22.479Z,0.67
2023-02-26T02:19:31.545Z,0.60
2023-02-26T02:22:47.228Z,0.70
2023-02-26T02:26:08.661Z,0.50
2023-02-26T02:29:33.676Z,0.60
2023-02-26T02:32:29.594Z,0.60
2023-02-26T02:35:23.721Z,0.50
2023-02-26T02:38:17.735Z,0.70
2023-02-26T02:41:11.571Z,0.60
2023-02-26T02:44:02.354Z,0.60
2023-02-26T02:46:55.132Z,0.50
2023-02-26T02:49:49.464Z,0.50
2023-02-26T02:52:43.796Z,0.63
2023-02-26T02:55:36.026Z,0.50
2023-02-26T02:58:29.347Z,0.70
2023-02-26T03:01:21.071Z,0.60
2023-02-26T03:04:11.910Z,0.50
2023-02-26T03:07:01.610Z,0.40
2023-02-26T03:09:50.162Z,0.60
2023-02-26T03:12:38.391Z,0.50
2023-02-26T03:15:35.888Z,0.60
2023-02-26T03:18:32.832Z,0.60
2023-02-26T03:21:30.361Z,0.50
2023-02-26T03:24:27.872Z,0.63
2023-02-26T03:27:24.975Z,0.50
2023-02-26T03:30:17.619Z,0.50
2023-02-26T03:33:12.083Z,0.60
2023-02-26T03:36:06.415Z,0.50
2023-02-26T03:38:59.879Z,0.50
2023-02-26T03:41:57.243Z,0.60
2023-02-26T03:44:50.520Z,0.40
2023-02-26T03:47:40.617Z,0.50
2023-02-26T03:50:33.744Z,0.43
2023-02-26T03:53:26.509Z,0.57
2023-02-26T03:56:19.122Z,0.50
2023-02-26T03:59:09.405Z,0.60
2023-02-26T04:02:02.067Z,0.60
2023-02-26T04:04:54.929Z,0.50
2023-02-26T04:07:43.479Z,0.57
2023-02-26T04:10:36.418Z,0.60
2023-02-26T04:13:25.049Z,0.50
2023-02-26T04:16:15.234Z,0.50
2023-02-26T04:19:03.509Z,0.50
2023-02-26T04:21:51.970Z,0.60
2023-02-26T04:24:40.273Z,0.50
2023-02-26T04:27:28.483Z,0.50
2023-02-26T04:30:16.927Z,0.60
2023-02-26T04:33:06.647Z,0.57
2023-02-26T04:35:54.933Z,0.50
2023-02-26T04:38:43.198Z,0.50
2023-02-26T04:41:32.012Z,0.50
2023-02-26T04:44:20.244Z,0.50
2023-02-26T04:47:08.676Z,0.60
2023-02-26T04:49:58.331Z,0.50
2023-02-26T04:52:46.615Z,0.50
2023-02-26T04:55:35.615Z,0.60
2023-02-26T04:58:24.076Z,0.50
2023-02-26T05:01:13.741Z,0.60
2023-02-26T05:04:02.347Z,0.53
2023-02-26T05:06:52.323Z,0.60
2023-02-26T05:09:40.625Z,0.50
2023-02-26T05:12:28.909Z,0.47
2023-02-26T05:15:17.439Z,0.57
2023-02-26T05:18:05.816Z,0.47
2023-02-26T05:20:55.015Z,0.43
2023-02-26T05:23:44.713Z,0.50
2023-02-26T05:26:33.019Z,0.50
2023-02-26T05:29:21.257Z,0.50
2023-02-26T05:32:09.880Z,0.53
2023-02-26T05:34:58.149Z,0.50
2023-02-26T05:37:46.456Z,0.50
2023-02-26T05:40:36.211Z,0.50
2023-02-26T05:43:24.499Z,0.50
2023-02-26T05:46:14.137Z,0.60
2023-02-26T05:49:02.557Z,0.60
2023-02-26T05:51:50.878Z,0.60
2023-02-26T05:54:39.048Z,0.50
2023-02-26T05:57:28.941Z,0.60
2023-02-26T06:00:18.003Z,0.50
2023-02-26T06:03:06.424Z,0.53
2023-02-26T06:05:54.750Z,0.40
2023-02-26T06:08:43.119Z,0.60
2023-02-26T06:11:33.992Z,0.70
2023-02-26T06:14:23.874Z,0.43
2023-02-26T06:17:12.251Z,0.50
2023-02-26T06:20:00.589Z,0.60
2023-02-26T06:22:50.768Z,0.60
2023-02-26T06:25:39.199Z,0.60
2023-02-26T06:28:27.737Z,0.60
2023-02-26T06:31:17.324Z,0.50
2023-02-26T06:34:05.562Z,0.60
2023-02-26T06:36:53.953Z,0.50
2023-02-26T06:39:42.286Z,0.60
2023-02-26T06:42:30.493Z,0.50
2023-02-26T06:45:18.922Z,0.57
2023-02-26T06:48:08.757Z,0.60
2023-02-26T06:50:57.197Z,0.50
2023-02-26T06:53:45.526Z,0.40
2023-02-26T06:56:34.136Z,0.53
2023-02-26T06:59:22.555Z,0.50
2023-02-26T07:02:17.539Z,0.60
2023-02-26T07:05:08.685Z,0.40
2023-02-26T07:07:58.344Z,0.40
2023-02-26T07:10:49.306Z,0.60
2023-02-26T07:13:39.233Z,0.60
2023-02-26T07:16:28.164Z,0.60
2023-02-26T07:19:16.777Z,0.60
2023-02-26T07:22:06.478Z,0.50
2023-02-26T07:24:56.107Z,0.50
2023-02-26T07:27:44.386Z,0.63
2023-02-26T07:30:32.830Z,0.40
2023-02-26T07:33:21.288Z,0.60
2023-02-26T07:36:09.664Z,0.60
2023-02-26T07:38:59.403Z,0.50
2023-02-26T07:41:47.772Z,0.50
2023-02-26T07:44:36.147Z,0.50
2023-02-26T07:47:24.443Z,0.60
2023-02-26T07:50:13.389Z,0.50
2023-02-26T07:53:01.689Z,0.50
2023-02-26T07:55:51.332Z,0.60
2023-02-26T07:58:39.677Z,0.50
2023-02-26T08:01:27.974Z,0.60
2023-02-26T08:04:16.728Z,0.50
2023-02-26T08:07:05.222Z,0.50
2023-02-26T08:09:53.966Z,0.50
2023-02-26T08:12:43.757Z,0.60
2023-02-26T08:15:32.005Z,0.50
2023-02-26T08:18:20.583Z,0.50
2023-02-26T08:21:08.760Z,0.60
2023-02-26T08:23:57.223Z,0.50
2023-02-26T08:26:46.300Z,0.50
2023-02-26T08:29:35.802Z,0.60
2023-02-26T08:32:24.282Z,0.40
2023-02-26T08:35:12.788Z,0.60
2023-02-26T08:38:01.127Z,0.60
2023-02-26T08:40:52.754Z,0.60
2023-02-26T08:43:41.420Z,0.53
2023-02-26T08:46:31.198Z,0.60
2023-02-26T08:49:19.471Z,0.67
2023-02-26T08:52:07.961Z,0.60
2023-02-26T08:54:56.386Z,0.60
2023-02-26T08:57:44.732Z,0.60
2023-02-26T09:00:33.211Z,0.50
2023-02-26T09:03:22.942Z,0.60
2023-02-26T09:06:11.312Z,0.60
2023-02-26T09:08:59.504Z,0.60
2023-02-26T09:11:47.789Z,0.70
2023-02-26T09:14:36.101Z,0.60
2023-02-26T09:17:24.346Z,0.80
2023-02-26T09:20:15.408Z,0.87
2023-02-26T09:23:03.752Z,1.20
2023-02-26T09:25:55.192Z,1.30
2023-02-26T09:28:43.439Z,1.10
2023-02-26T09:31:32.713Z,1.10
2023-02-26T09:34:21.303Z,0.93
2023-02-26T09:37:11.424Z,1.17
2023-02-26T09:39:59.648Z,1.10
2023-02-26T09:43:11.700Z,1.30
2023-02-26T09:46:05.679Z,1.50
2023-02-26T09:49:03.541Z,1.10
2023-02-26T09:51:55.612Z,1.47
2023-02-26T09:54:49.235Z,1.30
2023-02-26T09:57:42.616Z,1.20
2023-02-26T10:00:37.460Z,1.33
2023-02-26T10:03:33.776Z,1.33
2023-02-26T10:06:26.034Z,1.63
2023-02-26T10:09:28.351Z,1.20
2023-02-26T10:12:20.238Z,2.30
2023-02-26T10:15:14.478Z,2.10
2023-02-26T10:18:09.349Z,1.40
2023-02-26T10:21:01.238Z,1.10
2023-02-26T10:23:56.281Z,1.10
2023-02-26T10:26:47.713Z,1.50
2023-02-26T10:29:43.692Z,1.10
2023-02-26T10:32:37.575Z,1.10
2023-02-26T10:35:30.212Z,1.40
2023-02-26T10:38:24.653Z,0.90
2023-02-26T10:41:16.981Z,0.90
2023-02-26T10:44:17.388Z,1.10
2023-02-26T10:47:16.457Z,0.80
2023-02-26T10:50:06.276Z,1.00
2023-02-26T10:52:55.762Z,1.10
2023-02-26T10:55:48.215Z,1.10
2023-02-26T10:58:36.645Z,1.07
2023-02-26T11:01:27.928Z,1.43
2023-02-26T11:04:20.246Z,0.93
2023-02-26T11:07:09.673Z,1.20
2023-02-26T11:09:58.508Z,1.00
2023-02-26T11:12:47.288Z,1.00
2023-02-26T11:15:35.630Z,0.80
2023-02-26T11:18:28.040Z,1.03
2023-02-26T11:21:20.804Z,0.90
2023-02-26T11:24:14.738Z,0.83
2023-02-26T11:27:06.303Z,1.00
2023-02-26T11:29:57.281Z,0.93
2023-02-26T11:32:46.657Z,0.97
2023-02-26T11:35:35.267Z,1.03
2023-02-26T11:38:27.978Z,0.90
2023-02-26T11:41:18.684Z,0.90
2023-02-26T11:44:09.817Z,0.93
2023-02-26T11:46:59.964Z,1.00
2023-02-26T11:49:52.703Z,1.07
2023-02-26T11:52:44.377Z,0.90
2023-02-26T11:55:37.696Z,0.90
2023-02-26T11:58:26.456Z,1.00
2023-02-26T12:01:17.723Z,0.80
2023-02-26T12:04:06.105Z,0.90
2023-02-26T12:06:55.625Z,0.90
2023-02-26T12:09:44.111Z,0.90
2023-02-26T12:12:58.849Z,0.80
2023-02-26T12:15:56.784Z,0.87
2023-02-26T12:18:58.857Z,0.90
2023-02-26T12:22:17.327Z,0.90
2023-02-26T12:25:21.795Z,1.00
2023-02-26T12:28:50.756Z,0.90
2023-02-26T12:32:10.814Z,0.93
2023-02-26T12:35:31.356Z,0.80
2023-02-26T12:38:24.953Z,0.80
2023-02-26T12:41:40.584Z,0.80
2023-02-26T12:44:55.861Z,0.80
2023-02-26T12:47:55.666Z,0.70
2023-02-26T12:50:59.734Z,0.90
2023-02-26T12:54:01.893Z,0.80
2023-02-26T12:57:07.449Z,1.00
2023-02-26T13:00:16.213Z,1.20
2023-02-26T13:03:40.007Z,1.10
2023-02-26T13:06:57.613Z,0.97
2023-02-26T13:09:55.751Z,0.90
2023-02-26T13:12:54.931Z,1.00
2023-02-26T13:15:59.753Z,0.90
2023-02-26T13:18:55.075Z,0.90
2023-02-26T13:21:48.011Z,0.80
2023-02-26T13:24:39.480Z,0.83
2023-02-26T13:27:32.848Z,1.40
2023-02-26T13:30:26.734Z,0.90
2023-02-26T13:33:20.872Z,0.90
2023-02-26T13:36:11.726Z,0.93
2023-02-26T13:39:27.440Z,0.90
2023-02-26T13:42:31.034Z,1.00
2023-02-26T13:45:37.838Z,0.97
2023-02-26T13:48:42.390Z,0.90
2023-02-26T13:51:36.173Z,0.83
2023-02-26T13:54:36.303Z,0.90
2023-02-26T13:57:36.200Z,0.90
2023-02-26T14:00:28.543Z,0.90
2023-02-26T14:06:46.404Z,1.00
2023-02-26T14:09:46.911Z,1.30
2023-02-26T14:12:39.185Z,1.00
2023-02-26T14:15:42.168Z,1.33
2023-02-26T14:18:38.727Z,1.83
2023-02-26T14:21:52.592Z,1.60
2023-02-26T14:24:46.008Z,1.50
2023-02-26T14:27:36.047Z,1.20
2023-02-26T14:30:31.077Z,1.40
2023-02-26T14:33:27.824Z,1.00
2023-02-26T14:36:24.773Z,1.10
2023-02-26T14:39:29.604Z,1.10
2023-02-26T14:42:22.543Z,1.30
2023-02-26T14:45:29.827Z,1.30
2023-02-26T14:48:20.587Z,1.10
2023-02-26T14:51:21.763Z,1.40
2023-02-26T14:54:40.215Z,1.20
2023-02-26T14:57:37.267Z,1.10
2023-02-26T15:00:37.892Z,1.20
2023-02-26T15:03:52.666Z,1.10
2023-02-26T15:07:02.549Z,1.00
2023-02-26T15:10:04.153Z,1.20
2023-02-26T15:13:06.754Z,1.30
2023-02-26T15:15:58.497Z,1.00
2023-02-26T15:19:07.678Z,0.80
2023-02-26T15:22:08.994Z,1.10
2023-02-26T15:25:01.207Z,1.17
2023-02-26T15:27:50.054Z,1.13
2023-02-26T15:30:38.750Z,1.30
2023-02-26T15:33:27.512Z,1.37
2023-02-26T15:36:18.846Z,1.70
2023-02-26T15:39:10.319Z,1.40
2023-02-26T15:41:59.966Z,1.60
2023-02-26T15:44:56.769Z,1.50
2023-02-26T15:47:45.705Z,1.30
2023-02-26T15:50:37.426Z,1.10
2023-02-26T15:53:31.653Z,1.30
2023-02-26T15:56:24.611Z,1.20
2023-02-26T15:59:19.423Z,1.23
2023-02-26T16:02:13.778Z,1.20
2023-02-26T16:05:03.467Z,1.37
2023-02-26T16:07:52.150Z,1.00
2023-02-26T16:10:42.448Z,1.10
2023-02-26T16:13:33.457Z,1.30
2023-02-26T16:16:27.210Z,1.30
2023-02-26T16:19:16.566Z,1.60
2023-02-26T16:22:11.107Z,1.40
2023-02-26T16:25:02.570Z,1.30
2023-02-26T16:27:56.057Z,1.30
2023-02-26T16:30:48.520Z,1.40
2023-02-26T16:33:39.237Z,1.50
2023-02-26T16:36:30.979Z,2.00
2023-02-26T16:39:24.582Z,1.70
2023-02-26T16:42:16.805Z,2.47
2023-02-26T16:45:23.612Z,1.80
2023-02-26T16:48:17.102Z,1.70
2023-02-26T16:51:12.220Z,1.60
2023-02-26T16:54:03.176Z,1.70
2023-02-26T16:56:59.562Z,1.50
2023-02-26T16:59:52.416Z,1.40
2023-02-26T17:02:44.530Z,1.20
2023-02-26T17:05:36.887Z,1.53
2023-02-26T17:08:32.905Z,1.40
2023-02-26T17:11:26.605Z,1.47
2023-02-26T17:14:22.501Z,1.77
2023-02-26T17:17:11.393Z,1.43
2023-02-26T17:19:59.804Z,1.20
2023-02-26T17:22:48.068Z,1.20
2023-02-26T17:25:39.821Z,0.97
2023-02-26T17:28:31.276Z,1.10
2023-02-26T17:31:20.140Z,0.93
2023-02-26T17:34:12.272Z,1.00
2023-02-26T17:37:05.605Z,1.10
2023-02-26T17:39:54.073Z,0.70
2023-02-26T17:42:43.752Z,0.90
2023-02-26T17:45:32.358Z,0.87
2023-02-26T17:48:21.064Z,1.00
2023-02-26T17:51:11.494Z,15.17
2023-02-26T17:53:59.856Z,58.23
2023-02-26T17:56:49.715Z,57.53
2023-02-26T17:59:39.492Z,64.27
2023-02-26T18:02:28.078Z,94.47
2023-02-26T18:05:16.409Z,100.23
2023-02-26T18:08:04.915Z,87.03
2023-02-26T18:10:54.655Z,70.20
2023-02-26T18:13:43.553Z,59.53
2023-02-26T18:16:39.031Z,50.77
2023-02-26T18:19:28.098Z,43.40
2023-02-26T18:22:18.947Z,36.80
2023-02-26T18:25:07.627Z,31.40
2023-02-26T18:28:00.333Z,27.70
2023-02-26T18:30:49.234Z,24.40
2023-02-26T18:33:41.206Z,20.30
2023-02-26T18:36:35.646Z,24.33
2023-02-26T18:39:27.491Z,20.83
2023-02-26T18:42:21.879Z,16.57
2023-02-26T18:45:11.837Z,13.63
2023-02-26T18:48:00.109Z,11.43
2023-02-26T18:50:50.153Z,9.40
2023-02-26T18:53:38.404Z,8.40
2023-02-26T18:56:26.740Z,6.97
2023-02-26T18:59:15.000Z,6.53
2023-02-26T19:02:05.236Z,7.10
2023-02-26T19:04:53.886Z,6.13
2023-02-26T19:07:43.765Z,6.20
2023-02-26T19:10:32.004Z,5.90
2023-02-26T19:13:20.265Z,5.60
2023-02-26T19:16:08.721Z,5.00
2023-02-26T19:18:57.153Z,5.20
2023-02-26T19:21:45.438Z,4.00
2023-02-26T19:24:35.254Z,3.90
2023-02-26T19:27:23.534Z,3.60
2023-02-26T19:30:12.744Z,3.07
2023-02-26T19:33:01.141Z,2.63
2023-02-26T19:35:49.618Z,2.67
2023-02-26T19:38:38.041Z,2.67
2023-02-26T19:41:28.355Z,2.30
2023-02-26T19:44:17.458Z,2.07
2023-02-26T19:47:06.003Z,1.80
2023-02-26T19:49:54.269Z,1.97
2023-02-26T19:52:42.609Z,1.80
2023-02-26T19:55:30.903Z,1.80
2023-02-26T19:58:20.742Z,1.60
2023-02-26T20:01:08.931Z,1.87
2023-02-26T20:03:57.337Z,1.60
2023-02-26T20:06:45.892Z,1.60
2023-02-26T20:09:34.365Z,1.60
2023-02-26T20:12:22.715Z,2.13
2023-02-26T20:15:13.222Z,3.70
2023-02-26T20:18:01.447Z,3.27
2023-02-26T20:20:49.667Z,3.60
2023-02-26T20:23:39.475Z,3.00
2023-02-26T20:26:27.821Z,2.60
2023-02-26T20:29:18.429Z,2.77
2023-02-26T20:32:08.518Z,2.67
2023-02-26T20:34:56.928Z,2.88
2023-02-26T20:37:45.543Z,2.63
2023-02-26T20:40:34.010Z,2.77
2023-02-26T20:43:22.246Z,2.73
2023-02-26T20:46:10.573Z,2.20
2023-02-26T20:49:02.226Z,2.60
2023-02-26T20:51:50.995Z,2.33
2023-02-26T20:54:39.262Z,2.03
2023-02-26T20:57:27.633Z,1.90
2023-02-26T21:00:17.052Z,2.10
2023-02-26T21:03:05.519Z,2.10
2023-02-26T21:05:55.315Z,2.20
2023-02-26T21:08:44.748Z,2.23
2023-02-26T21:11:36.806Z,1.87
2023-02-26T21:14:26.900Z,2.00
2023-02-26T21:17:15.278Z,1.90
2023-02-26T21:20:05.962Z,2.20
2023-02-26T21:22:55.692Z,2.20
2023-02-26T21:25:44.007Z,1.73
2023-02-26T21:28:32.550Z,1.80
2023-02-26T21:31:22.995Z,2.30
2023-02-26T21:34:30.272Z,2.03
2023-02-26T21:37:19.821Z,2.00
2023-02-26T21:40:11.436Z,1.80
2023-02-26T21:43:00.072Z,2.17
2023-02-26T21:45:49.641Z,1.80
2023-02-26T21:48:37.907Z,2.00
2023-02-26T21:51:27.088Z,1.80
2023-02-26T21:54:15.758Z,1.90
2023-02-26T21:57:05.614Z,2.37
2023-02-26T21:59:53.874Z,1.70
2023-02-26T22:02:44.081Z,1.60
2023-02-26T22:05:32.656Z,1.83
2023-02-26T22:08:21.249Z,1.80
2023-02-26T22:11:09.685Z,1.60
2023-02-26T22:13:59.434Z,1.60
2023-02-26T22:16:47.654Z,1.70
2023-02-26T22:19:36.036Z,1.50
2023-02-26T22:22:24.611Z,1.80
2023-02-26T22:25:13.559Z,1.77
2023-02-26T22:28:01.966Z,1.70
2023-02-26T22:30:51.894Z,1.80
2023-02-26T22:33:40.420Z,2.00
2023-02-26T22:36:30.216Z,1.80
2023-02-26T22:39:18.364Z,1.90
2023-02-26T22:42:06.783Z,1.70
2023-02-26T22:44:55.017Z,1.63
2023-02-26T22:47:45.666Z,1.67
2023-02-26T22:50:34.286Z,1.60
2023-02-26T22:53:22.589Z,1.90
2023-02-26T22:56:11.742Z,1.60
2023-02-26T22:59:00.217Z,1.63
2023-02-26T23:01:48.504Z,1.50
2023-02-26T23:04:38.457Z,1.40
2023-02-26T23:07:26.891Z,1.80
2023-02-26T23:10:18.665Z,1.70
2023-02-26T23:13:07.132Z,1.63
2023-02-26T23:15:55.494Z,1.50
2023-02-26T23:18:45.615Z,1.40
2023-02-26T23:21:35.289Z,1.37
2023-02-26T23:24:23.591Z,1.43
2023-02-26T23:27:11.839Z,1.40
2023-02-26T23:30:00.141Z,1.60
2023-02-26T23:32:48.525Z,1.60
2023-02-26T23:35:37.046Z,1.30
2023-02-26T23:38:26.615Z,1.57
2023-02-26T23:41:15.210Z,1.53
2023-02-26T23:44:03.971Z,1.30
2023-02-26T23:46:52.468Z,1.30
2023-02-26T23:49:40.888Z,1.40
2023-02-26T23:52:29.295Z,1.43
2023-02-26T23:55:19.166Z,1.53
2023-02-26T23:58:07.515Z,1.30
